Time;durP1;ratioP1;P1;durP2;ratioP2;P2;SDS_P1;SDS_P2;PMS_P1;PMS_P2;Temp;Humidity;BMP_temperature;BMP_pressure;BME280_temperature;BME280_humidity;BME280_pressure;Samples;Min_cycle;Max_cycle;Signal;HPM_P1;HPM_P2
2021/03/18 00:01:05;;;;;;;1.70;1.23;;;2.10;94.50;;;;;;5072966;28;20214;-68
2021/03/18 00:03:33;;;;;;;1.50;1.15;;;2.20;94.50;;;;;;5071569;28;20197;-69
2021/03/18 00:05:59;;;;;;;0.80;0.80;;;2.10;93.70;;;;;;5073376;28;20622;-69
2021/03/18 00:08:26;;;;;;;1.40;1.30;;;2.20;94.00;;;;;;5073112;28;20679;-68
2021/03/18 00:10:53;;;;;;;1.10;1.00;;;2.10;94.30;;;;;;5072820;28;20194;-68
2021/03/18 00:13:21;;;;;;;1.63;0.65;;;2.00;94.20;;;;;;5072847;28;20181;-68
2021/03/18 00:15:46;;;;;;;0.98;0.93;;;1.90;94.60;;;;;;5072805;28;20273;-69
2021/03/18 00:18:17;;;;;;;1.53;1.43;;;2.00;94.50;;;;;;5072932;28;20588;-69
2021/03/18 00:20:44;;;;;;;1.08;0.98;;;2.00;94.10;;;;;;5072857;28;20186;-69
2021/03/18 00:23:09;;;;;;;3.00;1.42;;;2.10;93.00;;;;;;5076016;28;20274;-68
2021/03/18 00:25:36;;;;;;;2.93;1.23;;;2.00;93.00;;;;;;5076678;28;20244;-69
2021/03/18 00:28:02;;;;;;;1.05;1.00;;;2.10;93.10;;;;;;5076494;28;20538;-69
2021/03/18 00:30:27;;;;;;;1.50;1.20;;;2.10;93.60;;;;;;5076519;28;20269;-68
2021/03/18 00:32:53;;;;;;;3.37;1.43;;;2.10;94.00;;;;;;5076252;28;20652;-68
2021/03/18 00:35:21;;;;;;;3.13;1.27;;;2.00;94.10;;;;;;5076490;28;20533;-70
2021/03/18 00:37:47;;;;;;;1.00;1.00;;;1.90;94.30;;;;;;5076580;28;20637;-69
2021/03/18 00:40:26;;;;;;;1.90;1.20;;;1.80;94.50;;;;;;5076219;28;20201;-69
2021/03/18 00:42:53;;;;;;;1.25;1.05;;;1.70;94.80;;;;;;5076191;28;20205;-68
2021/03/18 00:45:20;;;;;;;1.85;1.73;;;1.70;94.70;;;;;;5076173;28;20256;-69
2021/03/18 00:47:46;;;;;;;1.35;1.25;;;1.60;94.70;;;;;;5076363;28;20170;-69
2021/03/18 00:50:16;;;;;;;0.80;0.80;;;1.50;94.70;;;;;;5076060;28;20186;-68
2021/03/18 00:52:42;;;;;;;0.90;0.90;;;1.50;94.90;;;;;;5075810;28;20174;-69
2021/03/18 00:55:08;;;;;;;1.13;1.03;;;1.40;94.90;;;;;;5076086;28;20195;-69
2021/03/18 00:57:34;;;;;;;1.52;1.13;;;1.30;94.80;;;;;;5076003;28;20673;-70
2021/03/18 00:59:59;;;;;;;1.10;1.10;;;1.20;94.90;;;;;;5075864;28;20201;-68
2021/03/18 01:02:25;;;;;;;1.57;1.33;;;1.10;95.20;;;;;;5075719;28;20197;-69
2021/03/18 01:04:51;;;;;;;2.20;1.80;;;1.10;95.40;;;;;;5076055;28;20162;-69
2021/03/18 01:07:16;;;;;;;1.23;1.13;;;1.00;94.90;;;;;;5075980;28;20173;-68
2021/03/18 01:09:42;;;;;;;3.13;1.50;;;0.80;95.00;;;;;;5075849;28;20310;-68
2021/03/18 01:12:08;;;;;;;1.43;1.07;;;0.80;95.20;;;;;;5075661;28;20188;-69
2021/03/18 01:14:33;;;;;;;1.93;1.20;;;0.70;95.30;;;;;;5075782;28;20435;-68
2021/03/18 01:16:59;;;;;;;3.13;2.03;;;0.80;95.50;;;;;;5075869;28;20179;-69
2021/03/18 01:19:24;;;;;;;5.60;1.57;;;0.90;95.60;;;;;;5075710;28;20271;-69
2021/03/18 01:21:53;;;;;;;1.63;1.53;;;1.00;95.60;;;;;;5075411;28;20274;-68
2021/03/18 01:24:19;;;;;;;2.55;1.90;;;1.00;95.20;;;;;;5075379;28;20169;-69
2021/03/18 01:26:46;;;;;;;1.50;1.40;;;0.90;95.00;;;;;;5075491;28;20173;-69
2021/03/18 01:29:13;;;;;;;4.15;2.00;;;0.90;95.00;;;;;;5075364;28;20427;-69
2021/03/18 01:31:40;;;;;;;1.02;0.93;;;0.70;95.40;;;;;;5075504;28;20209;-69
2021/03/18 01:34:07;;;;;;;0.95;0.95;;;0.50;96.00;;;;;;5074639;28;20165;-69
2021/03/18 01:36:34;;;;;;;1.67;1.58;;;0.40;96.30;;;;;;5075418;28;20260;-69
2021/03/18 01:39:00;;;;;;;1.30;0.98;;;0.40;96.20;;;;;;5075352;28;20242;-68
2021/03/18 01:41:28;;;;;;;2.20;1.20;;;0.30;96.10;;;;;;5075460;28;20469;-69
2021/03/18 01:43:54;;;;;;;0.90;0.90;;;0.30;96.10;;;;;;5075086;28;20739;-70
2021/03/18 01:46:20;;;;;;;1.10;1.08;;;0.30;96.10;;;;;;5075281;28;20166;-70
2021/03/18 01:48:46;;;;;;;2.38;2.20;;;0.20;96.10;;;;;;5075154;28;20162;-68
2021/03/18 01:51:15;;;;;;;2.20;1.52;;;0.20;96.20;;;;;;5075175;28;20211;-69
2021/03/18 01:53:41;;;;;;;3.45;2.15;;;0.10;95.70;;;;;;5074905;28;20314;-68
2021/03/18 01:56:08;;;;;;;2.20;1.47;;;0.00;95.50;;;;;;5075145;28;20249;-69
2021/03/18 01:58:35;;;;;;;2.28;2.10;;;-0.10;95.60;;;;;;5074880;28;20770;-68
2021/03/18 02:01:06;;;;;;;1.45;1.35;;;-0.30;96.00;;;;;;5074818;28;20703;-69
2021/03/18 02:03:32;;;;;;;0.95;0.82;;;-0.30;96.30;;;;;;5074701;28;20197;-69
2021/03/18 02:05:58;;;;;;;1.60;1.50;;;-0.40;96.70;;;;;;5074728;28;20252;-70
2021/03/18 02:08:24;;;;;;;1.50;1.40;;;-0.30;97.00;;;;;;5074859;28;20239;-69
2021/03/18 02:10:51;;;;;;;1.63;1.43;;;-0.30;97.10;;;;;;5074514;28;20459;-69
2021/03/18 02:13:18;;;;;;;2.63;2.42;;;-0.20;97.50;;;;;;5074471;28;20170;-68
2021/03/18 02:15:53;;;;;;;1.52;1.42;;;-0.20;96.90;;;;;;5074371;28;20218;-68
2021/03/18 02:18:47;;;;;;;2.67;1.27;;;-0.10;97.00;;;;;;5074635;28;20173;-68
2021/03/18 02:21:36;;;;;;;2.65;1.60;;;0.00;96.80;;;;;;5074423;28;20188;-69
2021/03/18 02:24:18;;;;;;;1.20;1.08;;;0.10;96.60;;;;;;5074353;28;20173;-69
2021/03/18 02:27:05;;;;;;;2.17;1.50;;;0.00;96.20;;;;;;5074545;28;20631;-69
2021/03/18 02:29:48;;;;;;;4.55;1.85;;;-0.10;96.30;;;;;;5074136;28;20679;-69
2021/03/18 02:32:39;;;;;;;3.53;1.42;;;-0.20;96.50;;;;;;5073999;28;20166;-69
2021/03/18 02:35:25;;;;;;;1.65;1.27;;;-0.30;96.60;;;;;;5074374;28;20249;-69
2021/03/18 02:37:57;;;;;;;1.45;0.90;;;-0.20;96.50;;;;;;5074156;28;20209;-68
2021/03/18 02:40:25;;;;;;;1.85;1.75;;;-0.10;96.30;;;;;;5074002;28;20195;-69
2021/03/18 02:42:59;;;;;;;1.63;0.93;;;-0.30;96.10;;;;;;5073865;28;20227;-69
2021/03/18 02:45:27;;;;;;;2.75;2.55;;;-0.30;96.10;;;;;;5073486;28;20162;-69
2021/03/18 02:47:56;;;;;;;1.20;1.15;;;-0.40;95.80;;;;;;5074284;28;20192;-69
2021/03/18 02:50:22;;;;;;;2.15;1.88;;;-0.50;95.90;;;;;;5073771;28;20178;-68
2021/03/18 02:52:49;;;;;;;3.67;1.70;;;-0.60;95.90;;;;;;5073758;28;20216;-70
2021/03/18 02:55:16;;;;;;;13.45;1.25;;;-0.60;95.80;;;;;;5073922;28;20193;-68
2021/03/18 02:57:43;;;;;;;2.20;1.98;;;-0.60;95.90;;;;;;5073910;28;20209;-70
2021/03/18 03:00:11;;;;;;;8.73;0.80;;;-0.70;95.90;;;;;;5073827;28;20648;-68
2021/03/18 03:02:38;;;;;;;1.02;0.85;;;-0.90;95.80;;;;;;5073350;28;20201;-69
2021/03/18 03:05:08;;;;;;;1.65;1.40;;;-1.00;96.10;;;;;;5073701;28;20296;-69
2021/03/18 03:07:34;;;;;;;1.30;1.10;;;-1.10;96.10;;;;;;5073792;28;20314;-69
2021/03/18 03:10:01;;;;;;;1.90;1.80;;;-1.30;96.40;;;;;;5073519;28;20216;-70
2021/03/18 03:12:30;;;;;;;1.30;1.27;;;-1.40;96.60;;;;;;5073340;28;20258;-68
2021/03/18 03:14:56;;;;;;;1.85;1.75;;;-1.50;96.80;;;;;;5073388;28;20648;-68
2021/03/18 03:17:24;;;;;;;2.25;1.48;;;-1.50;96.90;;;;;;5073718;28;20173;-69
2021/03/18 03:19:53;;;;;;;1.02;0.98;;;-1.70;97.00;;;;;;5073335;28;20186;-69
2021/03/18 03:22:20;;;;;;;1.42;1.35;;;-1.70;97.30;;;;;;5073172;28;20286;-68
2021/03/18 03:24:46;;;;;;;1.33;1.20;;;-1.70;97.20;;;;;;5073589;28;20177;-69
2021/03/18 03:27:14;;;;;;;1.40;1.30;;;-1.70;97.30;;;;;;5073593;28;20172;-69
2021/03/18 03:29:45;;;;;;;1.13;1.02;;;-1.70;97.20;;;;;;5073309;28;20193;-69
2021/03/18 03:32:12;;;;;;;2.10;1.58;;;-1.70;97.30;;;;;;5073427;28;20222;-69
2021/03/18 03:34:39;;;;;;;1.00;1.00;;;-1.60;97.20;;;;;;5073422;28;20553;-70
2021/03/18 03:37:06;;;;;;;2.08;1.60;;;-1.60;97.10;;;;;;5073509;28;20219;-68
2021/03/18 03:39:34;;;;;;;1.23;1.13;;;-1.60;97.20;;;;;;5073421;28;20194;-69
2021/03/18 03:42:00;;;;;;;1.52;1.42;;;-1.50;97.20;;;;;;5073396;28;20211;-68
2021/03/18 03:44:26;;;;;;;1.40;1.17;;;-1.40;97.10;;;;;;5073369;28;20219;-68
2021/03/18 03:46:52;;;;;;;3.90;1.87;;;-1.40;96.80;;;;;;5073486;28;20170;-68
2021/03/18 03:49:17;;;;;;;2.30;1.43;;;-1.40;96.70;;;;;;5073297;28;20210;-69
2021/03/18 03:51:56;;;;;;;0.97;0.97;;;-1.30;96.70;;;;;;5073126;28;20639;-69
2021/03/18 03:54:23;;;;;;;3.10;2.00;;;-1.20;96.20;;;;;;5073041;28;20169;-68
2021/03/18 03:57:02;;;;;;;1.83;1.60;;;-1.20;95.90;;;;;;5074661;28;20189;-68
2021/03/18 03:59:34;;;;;;;4.75;2.53;;;-1.20;95.70;;;;;;5077194;28;20200;-69
2021/03/18 04:02:02;;;;;;;1.00;0.90;;;-1.20;95.60;;;;;;5077058;28;20185;-68
2021/03/18 04:04:44;;;;;;;1.17;1.08;;;-1.20;95.60;;;;;;5077067;28;20165;-68
2021/03/18 04:07:14;;;;;;;2.03;1.33;;;-1.20;95.60;;;;;;5077197;28;20666;-69
2021/03/18 04:09:43;;;;;;;1.83;1.20;;;-1.40;95.80;;;;;;5077243;28;20185;-68
2021/03/18 04:12:13;;;;;;;1.70;1.60;;;-1.30;96.10;;;;;;5075390;28;20546;-69
2021/03/18 04:14:44;;;;;;;1.52;1.42;;;-1.30;96.10;;;;;;5076825;28;20185;-67
2021/03/18 04:17:12;;;;;;;2.35;1.70;;;-1.10;96.00;;;;;;5077026;28;20311;-69
2021/03/18 04:19:39;;;;;;;1.25;0.98;;;-1.00;95.80;;;;;;5076666;28;20185;-69
2021/03/18 04:22:06;;;;;;;3.10;1.70;;;-0.90;95.60;;;;;;5076807;28;20220;-68
2021/03/18 04:24:33;;;;;;;1.80;1.70;;;-0.90;95.40;;;;;;5076416;28;20189;-68
2021/03/18 04:26:59;;;;;;;1.20;1.10;;;-0.80;95.30;;;;;;5076823;28;20254;-69
2021/03/18 04:29:30;;;;;;;1.70;1.60;;;-0.80;95.10;;;;;;5075343;28;20724;-68
2021/03/18 04:31:57;;;;;;;1.95;1.15;;;-0.70;95.20;;;;;;5076541;28;20213;-70
2021/03/18 04:34:25;;;;;;;3.15;1.73;;;-0.70;95.10;;;;;;5076361;28;20180;-69
2021/03/18 04:36:52;;;;;;;0.98;0.98;;;-0.70;95.10;;;;;;5076807;28;20539;-68
2021/03/18 04:39:18;;;;;;;3.33;1.33;;;-0.80;95.30;;;;;;5076427;28;20545;-68
2021/03/18 04:41:44;;;;;;;0.80;0.80;;;-0.70;95.60;;;;;;5076217;28;20256;-69
2021/03/18 04:44:12;;;;;;;1.30;1.27;;;-0.60;95.60;;;;;;5076195;28;20469;-68
2021/03/18 04:46:41;;;;;;;1.45;1.35;;;-0.60;95.50;;;;;;5076483;28;20765;-68
2021/03/18 04:49:08;;;;;;;1.30;1.20;;;-0.50;95.40;;;;;;5076055;28;20178;-69
2021/03/18 04:51:34;;;;;;;1.80;1.70;;;-0.50;95.20;;;;;;5076131;28;20627;-68
2021/03/18 04:54:00;;;;;;;2.50;2.37;;;-0.40;95.00;;;;;;5076169;28;20170;-69
2021/03/18 04:56:27;;;;;;;1.53;1.40;;;-0.30;94.80;;;;;;5076195;28;20533;-70
2021/03/18 04:58:55;;;;;;;4.80;2.33;;;-0.30;94.80;;;;;;5075948;28;20195;-69
2021/03/18 05:01:24;;;;;;;1.77;1.10;;;-0.20;94.80;;;;;;5075978;28;20169;-70
2021/03/18 05:03:50;;;;;;;8.20;1.83;;;-0.20;94.70;;;;;;5075813;28;20193;-69
2021/03/18 05:06:16;;;;;;;3.70;1.75;;;-0.20;94.80;;;;;;5076025;28;20170;-70
2021/03/18 05:08:42;;;;;;;1.57;1.43;;;-0.10;94.70;;;;;;5074858;28;20257;-69
2021/03/18 05:11:09;;;;;;;2.63;1.30;;;-0.10;94.80;;;;;;5075745;28;20408;-70
2021/03/18 05:13:36;;;;;;;1.30;1.20;;;0.00;94.60;;;;;;5075578;28;20173;-69
2021/03/18 05:16:03;;;;;;;1.75;1.13;;;0.00;94.40;;;;;;5075810;28;20247;-69
2021/03/18 05:18:30;;;;;;;1.55;1.45;;;0.00;94.40;;;;;;5075766;28;20169;-68
2021/03/18 05:20:57;;;;;;;0.90;0.90;;;0.00;94.60;;;;;;5076149;28;20515;-69
2021/03/18 05:23:25;;;;;;;2.08;1.40;;;0.00;94.60;;;;;;5075443;28;20201;-69
2021/03/18 05:25:50;;;;;;;1.60;1.50;;;1.20;95.20;;;;;;5075490;28;20208;-68
2021/03/18 05:28:16;;;;;;;1.53;1.33;;;0.00;94.70;;;;;;5075590;28;20201;-68
2021/03/18 05:30:43;;;;;;;1.60;1.50;;;-0.10;94.90;;;;;;5075439;28;20177;-68
2021/03/18 05:33:09;;;;;;;2.40;1.63;;;-0.10;94.90;;;;;;5075255;28;20173;-69
2021/03/18 05:35:38;;;;;;;11.90;1.42;;;-0.30;94.90;;;;;;5075511;28;20232;-69
2021/03/18 05:38:04;;;;;;;2.15;1.70;;;-0.30;95.40;;;;;;5075342;28;20185;-69
2021/03/18 05:40:30;;;;;;;2.28;2.05;;;-0.20;95.60;;;;;;5075454;28;20193;-70
2021/03/18 05:42:57;;;;;;;2.20;1.97;;;-0.20;95.60;;;;;;5074992;28;20646;-68
2021/03/18 05:45:23;;;;;;;4.97;1.75;;;-0.20;95.60;;;;;;5075273;28;20765;-68
2021/03/18 05:47:49;;;;;;;1.37;1.27;;;-0.10;95.40;;;;;;5075276;28;20170;-69
2021/03/18 05:50:19;;;;;;;1.35;1.25;;;-0.30;95.30;;;;;;5075018;28;20182;-68
2021/03/18 05:52:45;;;;;;;4.47;3.03;;;-0.30;95.60;;;;;;5074944;28;20170;-69
2021/03/18 05:55:11;;;;;;;2.25;1.85;;;-0.20;95.80;;;;;;5074950;28;20173;-68
2021/03/18 05:57:39;;;;;;;1.50;1.40;;;-0.10;95.50;;;;;;5074930;28;20178;-69
2021/03/18 06:00:11;;;;;;;3.38;3.08;;;-0.20;95.20;;;;;;5074814;28;20189;-68
2021/03/18 06:02:37;;;;;;;3.53;3.22;;;-0.10;95.20;;;;;;5074751;28;20229;-69
2021/03/18 06:05:09;;;;;;;4.10;3.20;;;-0.20;95.20;;;;;;5074888;28;20178;-68
2021/03/18 06:07:43;;;;;;;1.98;1.83;;;-0.30;95.60;;;;;;5074672;28;20174;-69
2021/03/18 06:10:14;;;;;;;1.13;1.02;;;-0.40;95.90;;;;;;5074970;28;20243;-69
2021/03/18 06:12:41;;;;;;;3.45;1.50;;;-0.30;96.20;;;;;;5074491;28;20173;-69
2021/03/18 06:15:08;;;;;;;2.40;2.20;;;-0.30;96.20;;;;;;5074607;28;20231;-70
2021/03/18 06:17:35;;;;;;;2.22;1.60;;;0.00;96.10;;;;;;5074372;28;20536;-70
2021/03/18 06:20:02;;;;;;;4.32;2.13;;;0.20;95.80;;;;;;5074502;28;20189;-68
2021/03/18 06:22:37;;;;;;;1.95;1.70;;;0.50;95.50;;;;;;5074135;28;20556;-68
2021/03/18 06:25:38;;;;;;;4.28;1.80;;;0.70;95.10;;;;;;5074172;28;20232;-69
2021/03/18 06:28:23;;;;;;;2.05;1.85;;;1.00;94.70;;;;;;5073955;28;20276;-69
2021/03/18 06:31:10;;;;;;;4.38;3.15;;;1.20;94.50;;;;;;5074182;28;20193;-70
2021/03/18 06:33:39;;;;;;;2.20;2.00;;;1.50;94.20;;;;;;5074361;28;20169;-69
2021/03/18 06:36:23;;;;;;;4.20;2.83;;;1.60;93.00;;;;;;5074262;28;20176;-69
2021/03/18 06:39:04;;;;;;;2.10;1.83;;;1.80;92.50;;;;;;5074440;28;20174;-69
2021/03/18 06:41:46;;;;;;;6.22;3.35;;;2.00;92.00;;;;;;5073904;28;20165;-68
2021/03/18 06:44:31;;;;;;;3.45;2.33;;;2.20;92.00;;;;;;5072710;28;20595;-70
2021/03/18 06:47:05;;;;;;;4.72;2.83;;;2.40;91.10;;;;;;5074088;28;20228;-69
2021/03/18 06:49:31;;;;;;;3.90;3.25;;;2.60;90.70;;;;;;5072551;28;20695;-69
2021/03/18 06:52:01;;;;;;;3.20;2.30;;;2.80;90.40;;;;;;5074067;28;20202;-68
2021/03/18 06:54:27;;;;;;;3.35;3.00;;;3.00;90.20;;;;;;5073723;28;20209;-70
2021/03/18 06:56:57;;;;;;;6.57;2.67;;;3.00;89.80;;;;;;5073891;28;20241;-70
2021/03/18 06:59:24;;;;;;;12.88;6.35;;;3.10;89.70;;;;;;5073813;28;20638;-68
2021/03/18 07:02:12;;;;;;;8.18;5.07;;;3.30;89.00;;;;;;5073587;28;20258;-69
2021/03/18 07:04:41;;;;;;;4.82;4.35;;;3.50;87.80;;;;;;5073896;28;20173;-68
2021/03/18 07:07:09;;;;;;;7.47;5.10;;;3.70;87.70;;;;;;5073709;28;20224;-68
2021/03/18 07:09:36;;;;;;;5.55;4.85;;;3.90;87.10;;;;;;5073546;28;20182;-68
2021/03/18 07:12:07;;;;;;;3.03;2.78;;;4.20;85.50;;;;;;5073799;28;20551;-69
2021/03/18 07:14:38;;;;;;;3.75;2.92;;;4.40;84.20;;;;;;5073364;28;20234;-69
2021/03/18 07:17:05;;;;;;;2.55;2.33;;;4.50;82.40;;;;;;5073723;28;20173;-68
2021/03/18 07:19:31;;;;;;;3.40;3.10;;;4.70;81.90;;;;;;5073528;28;20181;-70
2021/03/18 07:21:58;;;;;;;3.15;2.15;;;4.80;80.90;;;;;;5073479;28;20697;-69
2021/03/18 07:24:27;;;;;;;3.50;2.60;;;5.00;80.10;;;;;;5073405;28;20177;-70
2021/03/18 07:26:59;;;;;;;5.47;3.33;;;5.20;79.00;;;;;;5073427;28;20169;-69
2021/03/18 07:29:28;;;;;;;4.45;2.17;;;5.40;78.80;;;;;;5073560;28;20193;-68
2021/03/18 07:31:55;;;;;;;3.33;2.60;;;5.60;77.10;;;;;;5072869;28;20204;-69
2021/03/18 07:34:21;;;;;;;3.50;3.03;;;5.90;75.80;;;;;;5073269;28;20533;-69
2021/03/18 07:36:47;;;;;;;3.28;2.78;;;6.20;73.90;;;;;;5073418;28;20227;-69
2021/03/18 07:39:14;;;;;;;3.80;3.17;;;6.30;72.40;;;;;;5073610;28;20193;-70
2021/03/18 07:41:44;;;;;;;3.47;3.03;;;6.60;71.80;;;;;;5073197;28;20400;-69
2021/03/18 07:44:12;;;;;;;3.95;2.72;;;6.80;70.40;;;;;;5073242;28;20169;-69
2021/03/18 07:46:38;;;;;;;3.78;2.75;;;5.90;70.20;;;;;;5073434;28;20211;-70
2021/03/18 07:49:15;;;;;;;3.20;2.73;;;6.00;72.00;;;;;;5073262;28;20227;-70
2021/03/18 07:51:43;;;;;;;3.67;2.70;;;6.30;71.10;;;;;;5073431;28;20414;-69
2021/03/18 07:54:14;;;;;;;5.03;3.10;;;6.70;68.90;;;;;;5072977;28;20174;-69
2021/03/18 07:56:45;;;;;;;4.25;3.13;;;7.30;67.00;;;;;;5073301;28;20658;-70
2021/03/18 07:59:11;;;;;;;3.97;2.30;;;7.90;65.30;;;;;;5073133;28;20194;-69
2021/03/18 08:01:38;;;;;;;4.30;3.10;;;8.60;62.90;;;;;;5072968;28;20173;-68
2021/03/18 08:04:06;;;;;;;3.60;2.45;;;9.10;59.50;;;;;;5072761;28;20197;-70
2021/03/18 08:06:41;;;;;;;3.30;2.72;;;9.80;58.60;;;;;;5073012;28;20161;-70
2021/03/18 08:09:09;;;;;;;2.78;2.45;;;11.80;54.50;;;;;;5072829;28;20225;-69
2021/03/18 08:11:39;;;;;;;3.00;2.47;;;13.00;48.60;;;;;;5073047;28;20203;-69
2021/03/18 08:14:20;;;;;;;2.77;2.50;;;13.90;45.70;;;;;;5072943;28;20396;-69
2021/03/18 08:16:46;;;;;;;3.67;3.33;;;15.00;42.60;;;;;;5073307;28;20412;-69
2021/03/18 08:19:13;;;;;;;3.33;2.40;;;15.30;39.90;;;;;;5072792;28;20423;-70
2021/03/18 08:21:46;;;;;;;3.20;2.90;;;15.30;38.80;;;;;;5072833;28;20429;-70
2021/03/18 08:24:14;;;;;;;3.90;3.27;;;15.60;37.80;;;;;;5072819;28;20401;-70
2021/03/18 08:26:45;;;;;;;3.53;2.67;;;16.40;37.20;;;;;;5072976;28;20400;-70
2021/03/18 08:29:23;;;;;;;3.20;3.00;;;18.00;35.20;;;;;;5073142;28;20518;-69
2021/03/18 08:31:54;;;;;;;3.07;2.77;;;18.50;32.00;;;;;;5073041;28;20458;-68
2021/03/18 08:34:39;;;;;;;2.63;2.43;;;18.00;32.80;;;;;;5072508;28;20451;-70
2021/03/18 08:37:05;;;;;;;3.47;2.50;;;18.90;32.40;;;;;;5072960;28;20410;-70
2021/03/18 08:39:49;;;;;;;4.73;3.00;;;19.90;31.70;;;;;;5072535;28;20428;-70
2021/03/18 08:42:30;;;;;;;3.47;3.13;;;20.50;29.20;;;;;;5072823;28;20207;-70
2021/03/18 08:44:56;;;;;;;3.40;2.70;;;21.00;27.50;;;;;;5076483;28;20393;-69
2021/03/18 08:47:38;;;;;;;3.63;3.33;;;20.20;27.20;;;;;;5076406;28;20493;-70
2021/03/18 08:50:06;;;;;;;4.70;3.43;;;20.90;27.50;;;;;;5076355;28;20904;-70
2021/03/18 08:52:38;;;;;;;3.43;2.70;;;21.80;27.40;;;;;;5076333;28;20412;-68
2021/03/18 08:55:07;;;;;;;4.03;2.53;;;22.50;26.90;;;;;;5076046;28;20463;-69
2021/03/18 08:57:33;;;;;;;3.13;2.93;;;20.40;26.90;;;;;;5076136;28;20400;-70
2021/03/18 09:00:00;;;;;;;3.27;2.60;;;19.00;28.20;;;;;;5076136;28;20432;-71
2021/03/18 09:02:32;;;;;;;3.13;2.83;;;18.60;28.40;;;;;;5075694;28;20447;-69
2021/03/18 09:05:00;;;;;;;4.17;2.40;;;17.60;28.00;;;;;;5075977;28;20426;-70
2021/03/18 09:07:30;;;;;;;4.30;3.00;;;16.70;28.40;;;;;;5076001;28;20420;-69
2021/03/18 09:10:24;;;;;;;2.40;2.20;;;15.80;29.00;;;;;;5075781;28;20504;-70
2021/03/18 09:13:05;;;;;;;3.40;3.10;;;14.90;29.80;;;;;;5075336;28;20473;-69
2021/03/18 09:15:37;;;;;;;3.40;2.07;;;14.10;31.80;;;;;;5075713;28;20831;-70
2021/03/18 09:18:30;;;;;;;4.23;3.20;;;14.00;31.80;;;;;;5075786;28;20803;-70
2021/03/18 09:21:08;;;;;;;3.30;2.87;;;13.50;31.90;;;;;;5075619;28;20439;-70
2021/03/18 09:23:39;;;;;;;2.57;2.37;;;13.40;31.80;;;;;;5075413;28;20495;-69
2021/03/18 09:26:08;;;;;;;3.20;2.30;;;15.60;31.90;;;;;;5075812;28;20398;-70
2021/03/18 09:28:36;;;;;;;3.60;3.30;;;18.10;30.40;;;;;;5075646;28;20994;-70
2021/03/18 09:31:03;;;;;;;3.77;2.73;;;19.90;27.90;;;;;;5075521;28;20490;-70
2021/03/18 09:33:32;;;;;;;2.00;1.53;;;21.00;26.90;;;;;;5075243;28;20405;-69
2021/03/18 09:36:01;;;;;;;2.27;2.07;;;21.80;26.70;;;;;;5075399;28;20436;-68
2021/03/18 09:38:30;;;;;;;2.30;2.10;;;20.70;25.60;;;;;;5075452;28;20760;-70
2021/03/18 09:40:59;;;;;;;2.87;2.50;;;20.10;26.50;;;;;;5075312;28;20421;-69
2021/03/18 09:43:26;;;;;;;2.57;2.37;;;18.50;26.40;;;;;;5074962;28;20462;-69
2021/03/18 09:46:01;;;;;;;6.17;2.63;;;15.40;27.50;;;;;;5075137;28;20404;-70
2021/03/18 09:48:38;;;;;;;2.90;2.37;;;13.80;30.50;;;;;;5075186;28;20904;-69
2021/03/18 09:51:16;;;;;;;2.40;2.08;;;12.00;32.30;;;;;;5075184;28;20399;-69
2021/03/18 09:53:43;;;;;;;2.42;2.22;;;10.30;33.80;;;;;;5074843;28;20197;-69
2021/03/18 09:56:11;;;;;;;2.67;2.45;;;9.40;37.30;;;;;;5074831;28;20177;-68
2021/03/18 09:58:38;;;;;;;3.05;2.85;;;8.40;39.60;;;;;;5075008;28;20537;-68
2021/03/18 10:01:15;;;;;;;2.15;1.77;;;7.80;41.30;;;;;;5075120;28;20251;-69
2021/03/18 10:03:59;;;;;;;1.98;1.65;;;7.30;43.30;;;;;;5074692;28;20215;-69
2021/03/18 10:06:35;;;;;;;3.95;2.05;;;7.10;44.30;;;;;;5074954;28;20204;-68
2021/03/18 10:09:25;;;;;;;3.25;2.00;;;7.30;45.00;;;;;;5074911;28;20287;-68
2021/03/18 10:11:54;;;;;;;5.63;3.67;;;7.30;44.80;;;;;;5074770;28;20241;-69
2021/03/18 10:14:26;;;;;;;3.17;2.20;;;7.40;45.20;;;;;;5074458;28;20241;-68
2021/03/18 10:16:53;;;;;;;4.05;2.78;;;7.40;45.40;;;;;;5074876;28;20206;-68
2021/03/18 10:19:23;;;;;;;2.75;2.20;;;7.40;43.90;;;;;;5074656;28;20584;-69
2021/03/18 10:21:50;;;;;;;4.43;2.95;;;7.30;43.70;;;;;;5074605;28;20165;-70
2021/03/18 10:24:17;;;;;;;2.70;2.50;;;7.10;43.40;;;;;;5074241;28;20208;-69
2021/03/18 10:26:43;;;;;;;3.95;2.53;;;7.40;44.80;;;;;;5074470;28;20518;-70
2021/03/18 10:29:11;;;;;;;2.90;2.63;;;7.50;43.80;;;;;;5072899;28;20688;-70
2021/03/18 10:31:39;;;;;;;1.90;1.80;;;7.80;43.40;;;;;;5074277;28;20172;-69
2021/03/18 10:34:05;;;;;;;1.92;1.83;;;8.10;43.70;;;;;;5074044;28;20590;-69
2021/03/18 10:36:41;;;;;;;4.35;2.83;;;7.70;42.30;;;;;;5074396;28;20195;-69
2021/03/18 10:39:10;;;;;;;5.00;3.30;;;7.10;42.70;;;;;;5074237;28;20274;-69
2021/03/18 10:41:53;;;;;;;3.45;2.75;;;7.00;43.20;;;;;;5074200;28;20165;-70
2021/03/18 10:44:20;;;;;;;4.55;3.03;;;6.90;44.80;;;;;;5074016;28;20228;-68
2021/03/18 10:46:47;;;;;;;2.47;2.30;;;6.60;46.30;;;;;;5074191;28;20165;-70
2021/03/18 10:49:15;;;;;;;2.85;2.20;;;6.80;46.40;;;;;;5073630;28;20205;-69
2021/03/18 10:51:45;;;;;;;3.35;2.35;;;6.70;46.20;;;;;;5073863;28;20193;-69
2021/03/18 10:54:23;;;;;;;4.55;2.40;;;6.40;45.90;;;;;;5073815;28;20285;-68
2021/03/18 10:56:50;;;;;;;2.55;2.22;;;6.30;47.00;;;;;;5073936;28;20162;-69
2021/03/18 10:59:18;;;;;;;3.42;2.47;;;6.40;48.30;;;;;;5072481;28;20204;-69
2021/03/18 11:01:44;;;;;;;3.70;2.67;;;6.40;46.20;;;;;;5073884;28;20163;-68
2021/03/18 11:04:11;;;;;;;2.33;1.90;;;6.70;44.30;;;;;;5073661;28;20758;-68
2021/03/18 11:06:48;;;;;;;3.53;2.95;;;6.70;42.40;;;;;;5072966;28;20401;-70
2021/03/18 11:09:15;;;;;;;2.97;2.67;;;6.70;43.50;;;;;;5073519;28;20191;-69
2021/03/18 11:11:57;;;;;;;4.20;2.55;;;6.90;45.60;;;;;;5073649;28;20180;-69
2021/03/18 11:14:23;;;;;;;3.53;2.45;;;7.70;45.50;;;;;;5073207;28;20583;-69
2021/03/18 11:17:08;;;;;;;2.70;1.80;;;8.30;43.50;;;;;;5073534;28;20172;-69
2021/03/18 11:19:34;;;;;;;3.53;2.45;;;8.10;41.20;;;;;;5073533;28;20185;-70
2021/03/18 11:22:04;;;;;;;2.83;2.10;;;8.00;40.40;;;;;;5073218;28;20179;-70
2021/03/18 11:24:31;;;;;;;4.60;3.40;;;8.10;40.70;;;;;;5073140;28;20942;-69
2021/03/18 11:27:00;;;;;;;3.92;2.75;;;8.30;43.20;;;;;;5073600;28;20180;-70
2021/03/18 11:29:29;;;;;;;3.67;2.70;;;8.20;44.00;;;;;;5073443;28;20192;-69
2021/03/18 11:31:58;;;;;;;3.95;2.58;;;8.20;42.90;;;;;;5073233;28;20203;-68
2021/03/18 11:34:27;;;;;;;3.65;2.90;;;8.10;43.70;;;;;;5073183;28;20165;-70
2021/03/18 11:36:57;;;;;;;2.47;2.25;;;8.30;44.00;;;;;;5073197;28;20521;-68
2021/03/18 11:39:22;;;;;;;3.03;2.83;;;8.30;44.70;;;;;;5071874;28;20208;-70
2021/03/18 11:41:54;;;;;;;3.17;2.97;;;8.20;43.90;;;;;;5073208;28;20173;-70
2021/03/18 11:44:20;;;;;;;5.72;4.20;;;7.80;43.80;;;;;;5073168;28;20169;-69
2021/03/18 11:46:46;;;;;;;2.75;2.20;;;7.60;44.40;;;;;;5073330;28;20632;-69
2021/03/18 11:49:12;;;;;;;4.97;2.87;;;7.50;44.80;;;;;;5073160;28;20235;-69
2021/03/18 11:51:38;;;;;;;2.65;2.45;;;7.80;45.40;;;;;;5073219;28;20231;-70
2021/03/18 11:54:06;;;;;;;3.00;2.20;;;8.10;44.80;;;;;;5073094;28;20183;-69
2021/03/18 11:56:31;;;;;;;4.57;3.17;;;8.40;44.40;;;;;;5073251;28;20184;-69
2021/03/18 11:58:57;;;;;;;3.77;2.50;;;8.60;43.20;;;;;;5073192;28;20197;-69
2021/03/18 12:01:22;;;;;;;10.93;2.60;;;8.80;44.30;;;;;;5073045;28;20180;-70
2021/03/18 12:03:51;;;;;;;3.60;3.30;;;9.10;43.30;;;;;;5072925;28;20287;-68
2021/03/18 12:06:17;;;;;;;4.72;3.28;;;9.30;42.90;;;;;;5073268;28;20253;-70
2021/03/18 12:08:43;;;;;;;3.47;3.20;;;9.60;42.40;;;;;;5073054;28;20188;-68
2021/03/18 12:11:09;;;;;;;5.30;3.80;;;9.90;41.40;;;;;;5073000;28;20195;-68
2021/03/18 12:13:35;;;;;;;3.40;2.80;;;10.00;40.20;;;;;;5072813;28;20627;-70
2021/03/18 12:16:01;;;;;;;2.63;2.42;;;9.50;40.80;;;;;;5072800;28;20230;-69
2021/03/18 12:18:27;;;;;;;3.70;3.40;;;9.00;42.10;;;;;;5075306;28;20177;-71
2021/03/18 12:20:53;;;;;;;3.90;3.07;;;8.90;43.00;;;;;;5076703;28;20227;-69
2021/03/18 12:23:19;;;;;;;2.45;2.25;;;8.90;42.10;;;;;;5076584;28;20546;-69
2021/03/18 12:25:45;;;;;;;4.15;3.85;;;8.90;42.50;;;;;;5076815;28;20604;-69
2021/03/18 12:28:12;;;;;;;2.30;2.10;;;8.40;43.30;;;;;;5076812;28;20252;-70
2021/03/18 12:30:39;;;;;;;2.30;2.15;;;7.70;45.30;;;;;;5076518;28;20840;-69
2021/03/18 12:33:05;;;;;;;3.42;3.03;;;7.10;44.90;;;;;;5076353;28;20179;-68
2021/03/18 12:35:31;;;;;;;3.22;2.75;;;6.80;45.50;;;;;;5075274;28;20170;-70
2021/03/18 12:37:56;;;;;;;3.70;2.50;;;6.70;46.20;;;;;;5076795;28;20178;-69
2021/03/18 12:40:23;;;;;;;3.80;2.70;;;6.10;47.80;;;;;;5076372;28;20198;-68
2021/03/18 12:42:49;;;;;;;7.45;3.63;;;5.70;49.40;;;;;;5076262;28;20268;-68
2021/03/18 12:45:17;;;;;;;3.97;2.78;;;5.60;51.60;;;;;;5076506;28;20511;-69
2021/03/18 12:47:43;;;;;;;2.60;2.40;;;5.60;53.10;;;;;;5076439;28;20179;-70
2021/03/18 12:50:11;;;;;;;2.72;2.45;;;5.80;52.70;;;;;;5076160;28;20213;-69
2021/03/18 12:52:37;;;;;;;4.65;4.25;;;5.80;52.40;;;;;;5076403;28;20166;-69
2021/03/18 12:55:05;;;;;;;2.85;2.28;;;5.70;52.50;;;;;;5076323;28;20173;-69
2021/03/18 12:57:31;;;;;;;5.63;3.15;;;5.80;53.10;;;;;;5076171;28;20635;-69
2021/03/18 12:59:57;;;;;;;3.67;2.17;;;5.90;52.20;;;;;;5076198;28;20194;-70
2021/03/18 13:02:22;;;;;;;3.43;2.00;;;6.20;52.40;;;;;;5075792;28;20209;-70
2021/03/18 13:04:48;;;;;;;4.20;3.83;;;6.50;51.00;;;;;;5076059;28;20540;-69